createdAt,value
2022-11-29T00:01:36.504Z,93666.78
2022-11-29T00:04:05.165Z,93668.19
2022-11-29T00:06:34.427Z,93677.13
2022-11-29T00:09:06.606Z,93671.84
2022-11-29T00:11:55.770Z,93670.81
2022-11-29T00:14:27.078Z,93680.75
2022-11-29T00:16:59.547Z,93676.69
2022-11-29T00:19:28.434Z,93681.75
2022-11-29T00:21:56.695Z,93680.94
2022-11-29T00:24:24.597Z,93683.38
2022-11-29T00:26:52.717Z,93687.81
2022-11-29T00:29:20.647Z,93681.91
2022-11-29T00:31:48.664Z,93679.88
2022-11-29T00:34:16.688Z,93670.34
2022-11-29T00:36:44.654Z,93681.94
2022-11-29T00:39:12.996Z,93685.16
2022-11-29T00:41:40.992Z,93665.88
2022-11-29T00:44:10.546Z,93686.78
2022-11-29T00:46:40.865Z,93667.34
2022-11-29T00:49:09.004Z,93679.06
2022-11-29T00:51:37.135Z,93684.34
2022-11-29T00:54:05.324Z,93679.47
2022-11-29T00:56:33.292Z,93679.28
2022-11-29T00:59:01.210Z,93682.91
2022-11-29T01:01:29.275Z,93688.81
2022-11-29T01:03:57.311Z,93675.63
2022-11-29T01:06:25.243Z,93677.66
2022-11-29T01:08:54.117Z,93681.31
2022-11-29T01:11:25.260Z,93679.28
2022-11-29T01:13:59.229Z,93671.38
2022-11-29T01:16:30.374Z,93676.22
2022-11-29T01:18:58.512Z,93672.16
2022-11-29T01:21:26.754Z,93678.47
2022-11-29T01:23:55.276Z,93673.81
2022-11-29T01:26:26.024Z,93670.34
2022-11-29T01:28:56.412Z,93673.41
2022-11-29T01:31:30.759Z,93672.56
2022-11-29T01:34:01.496Z,93666.91
2022-11-29T01:36:30.083Z,93666.25
2022-11-29T01:39:02.832Z,93663.81
2022-11-29T01:41:33.500Z,93660.81
2022-11-29T01:44:28.021Z,93661.81
2022-11-29T01:46:56.880Z,93655.34
2022-11-29T01:49:30.837Z,93654.47
2022-11-29T01:52:01.162Z,93653.69
2022-11-29T01:54:32.021Z,93651.06
2022-11-29T01:57:02.811Z,93650.22
2022-11-29T01:59:31.157Z,93649.81
2022-11-29T02:02:06.133Z,93649.41
2022-11-29T02:04:35.919Z,93647.56
2022-11-29T02:07:04.405Z,93642.91
2022-11-29T02:09:32.510Z,93642.91
2022-11-29T02:12:44.896Z,93635.63
2022-11-29T02:15:50.617Z,93639.88
2022-11-29T02:18:32.884Z,93633.63
2022-11-29T02:21:32.741Z,93634.03
2022-11-29T02:24:29.763Z,93636.03
2022-11-29T02:27:00.410Z,93632.75
2022-11-29T02:29:46.852Z,93639.69
2022-11-29T02:32:48.445Z,93636.44
2022-11-29T02:35:25.495Z,93637.66
2022-11-29T02:38:18.996Z,93640.94
2022-11-29T02:40:58.636Z,93636.72
2022-11-29T02:43:45.190Z,93638.69
2022-11-29T02:46:51.467Z,93631.81
2022-11-29T02:49:59.203Z,93643.94
2022-11-29T02:52:49.272Z,93640.53
2022-11-29T02:55:56.069Z,93645.19
2022-11-29T03:01:32.264Z,93643.00
2022-11-29T03:04:46.368Z,93641.19
2022-11-29T03:07:41.659Z,93643.41
2022-11-29T03:10:23.628Z,93641.38
2022-11-29T03:12:54.001Z,93633.88
2022-11-29T03:15:29.800Z,93634.25
2022-11-29T03:18:13.698Z,93636.72
2022-11-29T03:21:12.886Z,93638.91
2022-11-29T03:23:40.977Z,93650.50
2022-11-29T03:26:14.476Z,93648.66
2022-11-29T03:29:09.405Z,93650.25
2022-11-29T03:31:44.173Z,93650.28
2022-11-29T03:34:27.268Z,93658.81
2022-11-29T03:37:18.943Z,93658.59
2022-11-29T03:40:13.115Z,93660.63
2022-11-29T03:42:53.336Z,93659.81
2022-11-29T03:45:34.012Z,93656.38
2022-11-29T03:48:11.037Z,93657.97
2022-11-29T03:50:43.784Z,93654.34
2022-11-29T03:53:29.192Z,93659.41
2022-11-29T03:56:00.615Z,93656.97
2022-11-29T03:59:12.693Z,93657.97
2022-11-29T04:02:04.106Z,93655.94
2022-11-29T04:04:55.932Z,93649.25
2022-11-29T04:07:58.060Z,93657.19
2022-11-29T04:10:38.367Z,93657.38
2022-11-29T04:13:09.399Z,93655.34
2022-11-29T04:16:11.721Z,93660.63
2022-11-29T04:19:17.025Z,93666.34
2022-11-29T04:21:56.518Z,93667.56
2022-11-29T04:24:39.489Z,93667.13
2022-11-29T04:27:29.417Z,93671.78
2022-11-29T04:30:18.180Z,93670.34
2022-11-29T04:33:23.601Z,93667.91
2022-11-29T04:36:11.527Z,93673.81
2022-11-29T04:39:01.047Z,93674.22
2022-11-29T04:41:31.805Z,93679.09
2022-11-29T04:44:13.297Z,93670.38
2022-11-29T04:46:56.056Z,93666.91
2022-11-29T04:49:27.012Z,93662.25
2022-11-29T04:51:57.251Z,93661.63
2022-11-29T04:54:32.144Z,93664.09
2022-11-29T04:57:13.203Z,93665.91
2022-11-29T05:00:07.347Z,93661.63
2022-11-29T05:02:45.336Z,93653.72
2022-11-29T05:05:22.080Z,93663.84
2022-11-29T05:08:24.324Z,93653.94
2022-11-29T05:11:06.933Z,93654.13
2022-11-29T05:14:13.632Z,93640.16
2022-11-29T05:16:49.618Z,93657.63
2022-11-29T05:19:35.579Z,93655.16
2022-11-29T05:22:22.099Z,93665.09
2022-11-29T05:25:22.380Z,93666.94
2022-11-29T05:28:05.673Z,93668.75
2022-11-29T05:31:19.465Z,93671.03
2022-11-29T05:34:12.558Z,93674.66
2022-11-29T05:36:54.020Z,93675.63
2022-11-29T05:39:47.987Z,93669.72
2022-11-29T05:42:25.236Z,93669.13
2022-11-29T05:45:28.706Z,93663.84
2022-11-29T05:48:04.697Z,93662.03
2022-11-29T05:51:11.081Z,93667.13
2022-11-29T05:54:03.819Z,93666.94
2022-11-29T05:56:48.758Z,93665.94
2022-11-29T05:59:25.522Z,93667.53
2022-11-29T06:02:02.056Z,93663.88
2022-11-29T06:04:46.407Z,93673.00
2022-11-29T06:07:33.438Z,93669.94
2022-11-29T06:10:06.152Z,93668.72
2022-11-29T06:12:36.229Z,93664.47
2022-11-29T06:15:19.209Z,93667.94
2022-11-29T06:17:59.658Z,93673.19
2022-11-29T06:20:39.320Z,93666.66
2022-11-29T06:23:30.160Z,93666.09
2022-11-29T06:26:19.251Z,93665.88
2022-11-29T06:29:11.072Z,93669.47
2022-11-29T06:31:44.769Z,93667.44
2022-11-29T06:34:30.726Z,93672.09
2022-11-29T06:37:26.787Z,93673.69
2022-11-29T06:39:56.113Z,93659.09
2022-11-29T06:42:24.113Z,93667.00
2022-11-29T06:44:52.523Z,93669.09
2022-11-29T06:47:31.948Z,93660.34
2022-11-29T06:50:04.194Z,93670.06
2022-11-29T06:52:58.586Z,93675.13
2022-11-29T06:55:58.399Z,93677.75
2022-11-29T06:58:46.350Z,93682.38
2022-11-29T07:01:23.195Z,93674.56
2022-11-29T07:03:53.548Z,93678.31
2022-11-29T07:06:24.820Z,93681.16
2022-11-29T07:08:59.544Z,93680.44
2022-11-29T07:11:28.656Z,93681.59
2022-11-29T07:13:56.920Z,93676.78
2022-11-29T07:16:32.152Z,93664.38
2022-11-29T07:19:29.020Z,93683.47
2022-11-29T07:22:01.956Z,93683.56
2022-11-29T07:24:56.358Z,93684.72
2022-11-29T07:27:47.430Z,93678.88
2022-11-29T07:30:22.883Z,93682.47
2022-11-29T07:33:00.549Z,93685.25
2022-11-29T07:35:38.892Z,93697.38
2022-11-29T07:38:19.494Z,93688.44
2022-11-29T07:41:06.063Z,93689.38
2022-11-29T07:43:55.947Z,93692.81
2022-11-29T07:46:25.864Z,93693.16
2022-11-29T07:48:53.804Z,93694.31
2022-11-29T07:51:22.201Z,93688.00
2022-11-29T07:53:50.205Z,93694.34
2022-11-29T07:56:18.187Z,93697.59
2022-11-29T07:58:46.298Z,93696.75
2022-11-29T08:01:14.514Z,93695.88
2022-11-29T08:03:42.950Z,93690.53
2022-11-29T08:06:11.020Z,93691.41
2022-11-29T08:08:43.722Z,93689.31
2022-11-29T08:11:13.392Z,93691.69
2022-11-29T08:13:41.229Z,93692.66
2022-11-29T08:16:09.201Z,93685.91
2022-11-29T08:18:37.442Z,93695.31
2022-11-29T08:21:07.557Z,93691.22
2022-11-29T08:23:36.787Z,93685.88
2022-11-29T08:26:07.376Z,93688.91
2022-11-29T08:28:35.496Z,93693.63
2022-11-29T08:31:05.264Z,93695.00
2022-11-29T08:33:35.889Z,93695.34
2022-11-29T08:36:13.051Z,93688.88
2022-11-29T08:38:41.197Z,93689.91
2022-11-29T08:41:12.104Z,93684.50
2022-11-29T08:43:41.062Z,93682.28
2022-11-29T08:46:11.446Z,93685.88
2022-11-29T08:48:43.105Z,93674.78
2022-11-29T08:51:11.045Z,93686.06
2022-11-29T08:53:42.128Z,93684.97
2022-11-29T08:56:49.348Z,93682.31
2022-11-29T08:58:59.657Z,93679.75
2022-11-29T09:01:29.502Z,93688.00
2022-11-29T09:04:00.670Z,93686.75
2022-11-29T09:06:33.039Z,93682.44
2022-11-29T09:09:04.056Z,93680.47
2022-11-29T09:11:34.764Z,93673.47
2022-11-29T09:14:05.954Z,93670.41
2022-11-29T09:16:36.778Z,93665.31
2022-11-29T09:19:06.279Z,93667.09
2022-11-29T09:21:38.869Z,93668.31
2022-11-29T09:24:07.164Z,93655.03
2022-11-29T09:26:37.057Z,93664.03
2022-11-29T09:29:06.822Z,93656.41
2022-11-29T09:31:35.611Z,93663.16
2022-11-29T09:34:03.820Z,93665.13
2022-11-29T09:36:31.934Z,93653.34
2022-11-29T09:39:05.399Z,93658.19
2022-11-29T09:41:47.091Z,93653.56
2022-11-29T09:44:25.640Z,93659.44
2022-11-29T09:47:12.381Z,93655.13
2022-11-29T09:49:55.568Z,93646.22
2022-11-29T09:52:26.085Z,93641.06
2022-11-29T09:55:31.002Z,93636.06
2022-11-29T09:58:01.269Z,93632.25
2022-11-29T10:00:31.186Z,93633.94
2022-11-29T10:03:13.727Z,93625.91
2022-11-29T10:05:47.674Z,93622.59
2022-11-29T10:08:24.826Z,93621.81
2022-11-29T10:10:58.884Z,93622.69
2022-11-29T10:13:34.438Z,93614.91
2022-11-29T10:16:24.344Z,93612.84
2022-11-29T10:19:27.201Z,93603.06
2022-11-29T10:22:02.074Z,93614.22
2022-11-29T10:24:32.784Z,93613.75
2022-11-29T10:27:00.876Z,93603.91
2022-11-29T10:29:29.076Z,93600.44
2022-11-29T10:31:59.484Z,93609.34
2022-11-29T10:34:31.178Z,93601.19
2022-11-29T10:37:02.548Z,93601.31
2022-11-29T10:39:39.870Z,93607.63
2022-11-29T10:42:35.783Z,93596.56
2022-11-29T10:45:05.703Z,93604.59
2022-11-29T10:47:33.971Z,93599.50
2022-11-29T10:50:02.693Z,93594.50
2022-11-29T10:52:30.828Z,93585.69
2022-11-29T10:55:00.364Z,93596.94
2022-11-29T10:57:28.424Z,93602.38
2022-11-29T11:00:07.375Z,93591.88
2022-11-29T11:02:36.179Z,93588.91
2022-11-29T11:05:18.842Z,93584.50
2022-11-29T11:07:57.698Z,93585.81
2022-11-29T11:10:31.105Z,93580.09
2022-11-29T11:13:19.593Z,93584.63
2022-11-29T11:15:47.730Z,93587.66
2022-11-29T11:18:24.570Z,93583.53
2022-11-29T11:21:02.243Z,93590.00
2022-11-29T11:23:39.883Z,93588.16
2022-11-29T11:26:14.815Z,93591.69
2022-11-29T11:28:52.734Z,93590.69
2022-11-29T11:31:34.639Z,93594.25
2022-11-29T11:34:39.080Z,93591.16
2022-11-29T11:37:16.403Z,93592.56
2022-11-29T11:39:47.119Z,93597.06
2022-11-29T11:42:37.679Z,93596.22
2022-11-29T11:45:23.641Z,93600.50
2022-11-29T11:48:13.836Z,93588.03
2022-11-29T11:50:57.787Z,93592.09
2022-11-29T11:53:36.807Z,93596.47
2022-11-29T11:56:10.879Z,93603.16
2022-11-29T11:58:44.751Z,93598.75
2022-11-29T12:01:12.774Z,93591.47
2022-11-29T12:04:10.566Z,93599.06
2022-11-29T12:06:45.349Z,93601.69
2022-11-29T12:09:19.601Z,93602.50
2022-11-29T12:11:57.213Z,93591.78
2022-11-29T12:15:07.371Z,93582.00
2022-11-29T12:17:44.111Z,93595.22
2022-11-29T12:20:27.770Z,93589.91
2022-11-29T12:23:13.929Z,93588.63
2022-11-29T12:26:19.274Z,93590.19
2022-11-29T12:29:00.257Z,93587.28
2022-11-29T12:31:55.480Z,93589.00
2022-11-29T12:34:35.881Z,93591.66
2022-11-29T12:37:30.381Z,93596.00
2022-11-29T12:40:23.928Z,93595.41
2022-11-29T12:42:54.766Z,93594.00
2022-11-29T12:45:27.494Z,93599.91
2022-11-29T12:48:32.985Z,93595.47
2022-11-29T12:51:31.492Z,93599.91
2022-11-29T12:54:16.060Z,93596.66
2022-11-29T12:57:09.186Z,93594.00
2022-11-29T13:00:01.385Z,93590.09
2022-11-29T13:03:03.300Z,93600.56
2022-11-29T13:05:43.162Z,93599.91
2022-11-29T13:08:17.384Z,93605.66
2022-11-29T13:11:03.847Z,93600.69
2022-11-29T13:13:37.791Z,93607.50
2022-11-29T13:16:30.902Z,93610.84
2022-11-29T13:19:02.050Z,93605.41
2022-11-29T13:21:44.357Z,93609.91
2022-11-29T13:24:52.338Z,93607.69
2022-11-29T13:27:30.171Z,93609.91
2022-11-29T13:30:01.067Z,93614.97
2022-11-29T13:32:36.529Z,93611.09
2022-11-29T13:35:27.658Z,93617.00
2022-11-29T13:38:02.313Z,93615.34
2022-11-29T13:40:37.585Z,93623.47
2022-11-29T13:43:23.417Z,93617.53
2022-11-29T13:45:58.923Z,93620.41
2022-11-29T13:48:45.800Z,93627.00
2022-11-29T13:51:28.761Z,93621.81
2022-11-29T13:53:59.886Z,93620.69
2022-11-29T13:56:46.800Z,93611.41
2022-11-29T13:59:30.004Z,93624.69
2022-11-29T14:01:59.419Z,93625.41
2022-11-29T14:04:27.483Z,93620.75
2022-11-29T14:07:21.688Z,93624.34
2022-11-29T14:10:05.982Z,93620.91
2022-11-29T14:13:03.134Z,93621.53
2022-11-29T14:15:33.550Z,93620.75
2022-11-29T14:18:09.102Z,93628.19
2022-11-29T14:20:39.833Z,93623.72
2022-11-29T14:23:08.018Z,93626.59
2022-11-29T14:26:02.663Z,93622.53
2022-11-29T14:28:35.222Z,93623.66
2022-11-29T14:31:05.257Z,93608.97
2022-11-29T14:34:00.669Z,93619.06
2022-11-29T14:36:43.631Z,93614.81
2022-11-29T14:39:34.539Z,93624.69
2022-11-29T14:42:18.924Z,93621.69
2022-11-29T14:44:52.113Z,93629.63
2022-11-29T14:47:32.112Z,93634.97
2022-11-29T14:50:04.479Z,93627.38
2022-11-29T14:52:40.828Z,93629.69
2022-11-29T14:55:30.958Z,93638.69
2022-11-29T14:58:02.345Z,93642.94
2022-11-29T15:00:32.973Z,93639.88
2022-11-29T15:03:00.952Z,93646.72
2022-11-29T15:05:33.833Z,93642.91
2022-11-29T15:08:28.103Z,93631.81
2022-11-29T15:11:15.048Z,93636.25
2022-11-29T15:14:02.515Z,93637.59
2022-11-29T15:16:52.645Z,93638.84
2022-11-29T15:19:39.078Z,93632.09
2022-11-29T15:22:36.562Z,93628.56
2022-11-29T15:25:32.115Z,93630.03
2022-11-29T15:28:02.889Z,93626.19
2022-11-29T15:30:36.021Z,93635.31
2022-11-29T15:33:07.512Z,93639.66
2022-11-29T15:35:36.847Z,93632.84
2022-11-29T15:38:04.920Z,93639.94
2022-11-29T15:40:37.425Z,93640.13
2022-11-29T15:43:17.255Z,93638.69
2022-11-29T15:45:57.089Z,93639.22
2022-11-29T15:48:31.118Z,93642.66
2022-11-29T15:51:14.463Z,93639.41
2022-11-29T15:54:13.269Z,93636.78
2022-11-29T15:56:44.474Z,93640.84
2022-11-29T15:59:38.825Z,93638.19
2022-11-29T16:02:21.883Z,93630.88
2022-11-29T16:04:54.160Z,93647.53
2022-11-29T16:07:24.853Z,93638.47
2022-11-29T16:10:05.018Z,93639.88
2022-11-29T16:12:32.989Z,93638.03
2022-11-29T16:15:01.773Z,93633.13
2022-11-29T16:17:35.005Z,93643.84
2022-11-29T16:20:15.009Z,93645.25
2022-11-29T16:22:43.327Z,93647.88
2022-11-29T16:25:19.596Z,93644.66
2022-11-29T16:27:47.942Z,93648.13
2022-11-29T16:30:24.306Z,93642.06
2022-11-29T16:33:03.697Z,93637.31
2022-11-29T16:35:36.768Z,93640.78
2022-11-29T16:38:05.453Z,93644.22
2022-11-29T16:40:35.658Z,93638.34
2022-11-29T16:43:03.628Z,93630.22
2022-11-29T16:45:43.556Z,93644.13
2022-11-29T16:48:30.536Z,93636.84
2022-11-29T16:51:10.546Z,93648.59
2022-11-29T16:53:42.686Z,93642.72
2022-11-29T16:56:13.516Z,93636.84
2022-11-29T16:59:20.626Z,93628.59
2022-11-29T17:01:31.986Z,93634.69
2022-11-29T17:04:00.763Z,93642.47
2022-11-29T17:06:29.759Z,93643.69
2022-11-29T17:08:59.130Z,93641.13
2022-11-29T17:11:27.125Z,93638.47
2022-11-29T17:13:55.109Z,93638.47
2022-11-29T17:16:24.873Z,93639.47
2022-11-29T17:18:53.057Z,93638.84
2022-11-29T17:21:26.353Z,93643.75
2022-11-29T17:23:54.721Z,93643.31
2022-11-29T17:26:23.360Z,93642.91
2022-11-29T17:28:52.293Z,93647.97
2022-11-29T17:31:23.460Z,93649.00
2022-11-29T17:33:51.997Z,93651.84
2022-11-29T17:36:20.709Z,93651.44
2022-11-29T17:38:49.302Z,93657.31
2022-11-29T17:41:22.201Z,93659.56
2022-11-29T17:43:51.860Z,93666.91
2022-11-29T17:46:30.648Z,93656.59
2022-11-29T17:49:01.208Z,93674.38
2022-11-29T17:51:51.144Z,93664.91
2022-11-29T17:54:17.892Z,93670.41
2022-11-29T17:56:45.733Z,93655.84
2022-11-29T17:59:13.666Z,93669.97
2022-11-29T18:01:41.799Z,93673.44
2022-11-29T18:04:10.385Z,93674.19
2022-11-29T18:06:40.546Z,93677.47
2022-11-29T18:09:11.797Z,93674.03
2022-11-29T18:11:47.633Z,93676.22
2022-11-29T18:14:28.444Z,93672.72
2022-11-29T18:16:56.784Z,93675.00
2022-11-29T18:19:25.562Z,93675.56
2022-11-29T18:21:53.549Z,93690.59
2022-11-29T18:24:21.661Z,93695.94
2022-11-29T18:26:49.843Z,93691.47
2022-11-29T18:29:18.333Z,93694.91
2022-11-29T18:31:46.869Z,93694.03
2022-11-29T18:34:15.803Z,93694.19
2022-11-29T18:36:46.523Z,93692.94
2022-11-29T18:39:20.459Z,93693.59
2022-11-29T18:41:50.424Z,93693.81
2022-11-29T18:44:22.026Z,93694.41
2022-11-29T18:46:50.712Z,93688.16
2022-11-29T18:49:19.461Z,93679.97
2022-11-29T18:51:50.082Z,93685.66
2022-11-29T18:54:19.054Z,93676.66
2022-11-29T18:56:51.537Z,93674.63
2022-11-29T18:59:20.265Z,93669.78
2022-11-29T19:01:49.086Z,93666.56
2022-11-29T19:04:19.257Z,93663.16
2022-11-29T19:06:48.721Z,93659.47
2022-11-29T19:09:21.570Z,93662.88
2022-11-29T19:11:51.231Z,93662.81
2022-11-29T19:14:20.533Z,93660.72
2022-11-29T19:16:50.223Z,93658.88
2022-11-29T19:19:21.773Z,93669.63
2022-11-29T19:21:50.731Z,93667.00
2022-11-29T19:24:19.469Z,93665.75
2022-11-29T19:26:50.220Z,93666.78
2022-11-29T19:29:18.962Z,93674.22
2022-11-29T19:31:47.563Z,93669.19
2022-11-29T19:34:16.311Z,93667.38
2022-11-29T19:36:45.554Z,93676.31
2022-11-29T19:39:17.018Z,93678.50
2022-11-29T19:41:48.260Z,93677.66
2022-11-29T19:44:17.082Z,93668.84
2022-11-29T19:46:48.931Z,93674.19
2022-11-29T19:49:17.761Z,93676.41
2022-11-29T19:51:46.500Z,93670.53
2022-11-29T19:54:15.100Z,93675.22
2022-11-29T19:56:44.060Z,93671.78
2022-11-29T19:59:12.220Z,93673.44
2022-11-29T20:01:42.780Z,93673.63
2022-11-29T20:04:13.399Z,93670.94
2022-11-29T20:06:41.970Z,93662.59
2022-11-29T20:09:12.353Z,93664.31
2022-11-29T20:11:40.838Z,93677.69
2022-11-29T20:14:12.316Z,93660.59
2022-11-29T20:16:41.423Z,93664.19
2022-11-29T20:19:11.060Z,93663.53
2022-11-29T20:21:43.045Z,93662.69
2022-11-29T20:24:14.632Z,93667.16
2022-11-29T20:26:45.517Z,93668.84
2022-11-29T20:29:14.806Z,93654.97
2022-11-29T20:31:49.634Z,93662.66
2022-11-29T20:34:18.549Z,93657.72
2022-11-29T20:37:15.008Z,93658.31
2022-11-29T20:40:03.577Z,93644.75
2022-11-29T20:42:44.881Z,93647.69
2022-11-29T20:45:14.923Z,93657.19
2022-11-29T20:47:55.830Z,93651.88
2022-11-29T20:50:27.204Z,93657.13
2022-11-29T20:53:10.721Z,93654.28
2022-11-29T20:55:44.862Z,93660.31
2022-11-29T20:58:16.863Z,93655.41
2022-11-29T21:00:46.582Z,93655.41
2022-11-29T21:03:16.253Z,93647.66
2022-11-29T21:05:44.635Z,93652.50
2022-11-29T21:08:13.714Z,93646.75
2022-11-29T21:10:41.884Z,93641.72
2022-11-29T21:13:12.782Z,93652.06
2022-11-29T21:15:41.137Z,93643.31
2022-11-29T21:18:20.233Z,93649.19
2022-11-29T21:21:04.959Z,93639.34
2022-11-29T21:23:41.741Z,93644.78
2022-11-29T21:26:21.007Z,93643.81
2022-11-29T21:29:10.522Z,93642.13
2022-11-29T21:31:38.917Z,93654.47
2022-11-29T21:34:06.938Z,93653.03
2022-11-29T21:36:36.436Z,93655.03
2022-11-29T21:39:06.256Z,93657.34
2022-11-29T21:41:34.574Z,93656.53
2022-11-29T21:44:07.472Z,93655.91
2022-11-29T21:46:36.470Z,93642.69
2022-11-29T21:49:05.123Z,93641.00
2022-11-29T21:51:33.156Z,93644.69
2022-11-29T21:54:02.378Z,93655.19
2022-11-29T21:56:30.263Z,93645.88
2022-11-29T21:58:58.343Z,93647.59
2022-11-29T22:01:27.728Z,93647.81
2022-11-29T22:03:56.017Z,93608.75
2022-11-29T22:06:24.496Z,93642.91
2022-11-29T22:08:52.889Z,93636.34
2022-11-29T22:11:31.384Z,93640.53
2022-11-29T22:14:13.853Z,93633.53
2022-11-29T22:16:58.977Z,93630.69
2022-11-29T22:19:30.952Z,93625.97
2022-11-29T22:22:10.974Z,93631.66
2022-11-29T22:24:39.009Z,93624.13
2022-11-29T22:27:06.987Z,93609.00
2022-11-29T22:29:34.958Z,93618.31
2022-11-29T22:32:02.973Z,93609.22
2022-11-29T22:34:31.036Z,93612.38
2022-11-29T22:36:58.961Z,93614.09
2022-11-29T22:39:27.055Z,93620.81
2022-11-29T22:41:55.465Z,93614.16
2022-11-29T22:44:24.386Z,93601.06
2022-11-29T22:46:52.696Z,93611.38
2022-11-29T22:49:20.832Z,93606.28
2022-11-29T22:51:48.719Z,93595.72
2022-11-29T22:54:17.628Z,93605.34
2022-11-29T22:56:46.084Z,93606.03
2022-11-29T22:59:14.619Z,93603.00
2022-11-29T23:01:43.263Z,93599.53
2022-11-29T23:04:13.340Z,93602.78
2022-11-29T23:06:45.963Z,93599.47
2022-11-29T23:09:17.074Z,93597.22
2022-11-29T23:11:46.771Z,93602.28
2022-11-29T23:14:14.809Z,93600.25
2022-11-29T23:16:42.842Z,93599.84
2022-11-29T23:19:11.047Z,93600.59
2022-11-29T23:21:41.033Z,93599.19
2022-11-29T23:24:09.103Z,93593.91
2022-11-29T23:26:40.438Z,93602.66
2022-11-29T23:29:14.027Z,93609.53
2022-11-29T23:31:42.580Z,93604.69
2022-11-29T23:34:10.723Z,93602.28
2022-11-29T23:36:39.318Z,93598.53
2022-11-29T23:39:07.857Z,93594.66
2022-11-29T23:41:38.789Z,93595.84
2022-11-29T23:44:07.109Z,93596.88
2022-11-29T23:46:35.546Z,93585.72
2022-11-29T23:49:03.947Z,93595.13
2022-11-29T23:51:31.867Z,93602.47
2022-11-29T23:53:59.911Z,93591.44
2022-11-29T23:56:27.843Z,93596.94
2022-11-29T23:58:55.896Z,93599.97
